Time;durP1;ratioP1;P1;durP2;ratioP2;P2;SDS_P1;SDS_P2;PMS_P1;PMS_P2;Temp;Humidity;BMP_temperature;BMP_pressure;BME280_temperature;BME280_humidity;BME280_pressure;Samples;Min_cycle;Max_cycle;Signal;HPM_P1;HPM_P2
2021/06/25 03:33:07;;;;;;;3.30;0.90;;;;;;;13.04;59.69;92706.44;4732164;30;25081;-79
2021/06/25 03:35:32;;;;;;;2.25;0.85;;;;;;;13.16;58.95;92700.66;4718683;30;20508;-79
2021/06/25 03:37:58;;;;;;;1.58;0.80;;;;;;;13.27;58.71;92707.25;4733336;30;20047;-79
2021/06/25 03:40:27;;;;;;;2.65;0.80;;;;;;;13.37;57.88;92698.38;4724884;30;20049;-79
2021/06/25 03:42:53;;;;;;;1.40;0.70;;;;;;;13.46;57.54;92693.19;4711413;30;20033;-79
2021/06/25 03:45:18;;;;;;;1.10;0.80;;;;;;;13.52;57.42;92692.75;4700760;30;20122;-80
2021/06/25 03:47:44;;;;;;;1.05;0.70;;;;;;;13.52;57.91;92692.00;4717099;30;20460;-79
2021/06/25 03:50:12;;;;;;;2.42;0.95;;;;;;;13.52;58.38;92694.63;4700747;30;20056;-79
2021/06/25 03:52:38;;;;;;;0.60;0.60;;;;;;;13.57;57.75;92691.09;4711660;30;20069;-79
2021/06/25 03:55:09;;;;;;;2.80;0.85;;;;;;;13.59;57.14;92691.56;4715491;30;20041;-79
2021/06/25 03:57:34;;;;;;;4.13;0.85;;;;;;;13.65;56.43;92687.75;4714963;30;20072;-78
2021/06/25 04:00:00;;;;;;;1.00;0.80;;;;;;;13.74;56.16;92683.31;4716619;30;20501;-79
2021/06/25 04:02:26;;;;;;;2.55;0.82;;;;;;;13.85;56.90;92691.75;4716416;30;20052;-79
2021/06/25 04:04:51;;;;;;;1.30;0.70;;;;;;;13.86;57.09;92699.31;4693683;30;20394;-79
2021/06/25 04:07:17;;;;;;;2.33;0.90;;;;;;;13.93;56.01;92693.63;4716922;30;20033;-79
2021/06/25 04:09:43;;;;;;;0.70;0.70;;;;;;;13.97;55.47;92693.81;4717069;30;20281;-79
2021/06/25 04:12:09;;;;;;;1.05;0.70;;;;;;;13.97;56.50;92694.59;4716323;30;20127;-79
2021/06/25 04:14:34;;;;;;;0.77;0.70;;;;;;;13.99;56.48;92689.03;4698930;30;20059;-79
2021/06/25 04:17:00;;;;;;;2.72;0.80;;;;;;;14.05;56.21;92691.25;4711044;30;20076;-79
2021/06/25 04:19:25;;;;;;;1.17;0.85;;;;;;;14.13;55.03;92692.34;4716262;30;20576;-79
2021/06/25 04:21:51;;;;;;;0.77;0.60;;;;;;;14.16;55.34;92692.53;4700929;30;20045;-79
2021/06/25 04:24:17;;;;;;;0.88;0.65;;;;;;;14.26;54.49;92696.75;4696778;30;20045;-78
2021/06/25 04:26:43;;;;;;;3.08;0.80;;;;;;;14.35;54.66;92700.19;4683945;30;20467;-78
2021/06/25 04:29:11;;;;;;;2.60;0.85;;;;;;;14.43;54.50;92703.94;4684357;30;20434;-78
2021/06/25 04:31:38;;;;;;;2.47;0.60;;;;;;;14.52;53.16;92696.06;4667273;30;20101;-78
2021/06/25 04:34:05;;;;;;;0.70;0.60;;;;;;;14.55;53.73;92704.19;4680303;30;20132;-78
2021/06/25 04:36:31;;;;;;;0.77;0.63;;;;;;;14.56;54.31;92694.41;4681803;30;20050;-79
2021/06/25 04:38:56;;;;;;;3.03;0.90;;;;;;;14.55;55.14;92693.66;4681631;30;20056;-78
2021/06/25 04:41:22;;;;;;;1.50;0.70;;;;;;;14.57;55.25;92696.75;4679781;30;20069;-78
2021/06/25 04:43:48;;;;;;;2.15;0.60;;;;;;;14.57;54.80;92695.97;4681221;30;20046;-79
2021/06/25 04:46:13;;;;;;;0.60;0.60;;;;;;;14.57;55.05;92693.34;4682598;30;20037;-79
2021/06/25 04:48:42;;;;;;;0.77;0.70;;;;;;;14.58;54.98;92693.03;4669486;30;20038;-78
2021/06/25 04:51:08;;;;;;;0.90;0.60;;;;;;;14.62;54.82;92693.19;4684651;30;20466;-79
2021/06/25 04:53:34;;;;;;;2.42;0.80;;;;;;;14.67;54.02;92689.66;4684187;30;20053;-78
2021/06/25 04:55:59;;;;;;;2.17;0.75;;;;;;;14.76;53.96;92688.56;4684675;30;20418;-79
2021/06/25 04:58:28;;;;;;;1.05;0.60;;;;;;;14.83;54.48;92692.63;4684782;30;20502;-78
2021/06/25 05:00:58;;;;;;;2.20;0.70;;;;;;;14.88;54.25;92689.84;4683282;30;20140;-79
2021/06/25 05:03:23;;;;;;;0.73;0.57;;;;;;;14.94;53.03;92691.25;4684872;30;20041;-79
2021/06/25 05:05:49;;;;;;;1.60;0.88;;;;;;;15.02;53.66;92690.50;4684851;30;20054;-79
2021/06/25 05:08:15;;;;;;;1.90;0.90;;;;;;;15.09;52.93;92696.09;4684217;30;20133;-79
2021/06/25 05:10:40;;;;;;;0.70;0.57;;;;;;;15.15;53.18;92694.06;4683933;30;20089;-79
2021/06/25 05:13:07;;;;;;;0.77;0.60;;;;;;;15.21;52.66;92698.13;4684490;30;20046;-79
2021/06/25 05:15:32;;;;;;;0.70;0.50;;;;;;;15.28;52.42;92698.44;4684445;30;20049;-79
2021/06/25 05:18:12;;;;;;;2.45;1.42;;;;;;;15.35;52.88;92679.50;4684491;30;20469;-78
2021/06/25 05:20:39;;;;;;;0.50;0.50;;;;;;;15.43;53.09;92691.16;4682672;30;20042;-78
2021/06/25 05:23:04;;;;;;;1.13;0.73;;;;;;;15.48;53.55;92693.63;4684490;30;20175;-78
2021/06/25 05:25:30;;;;;;;1.05;0.70;;;;;;;15.52;52.51;92687.41;4684047;30;20208;-79
2021/06/25 05:27:55;;;;;;;1.15;0.73;;;;;;;15.60;51.26;92688.50;4684103;30;20498;-78
2021/06/25 05:30:21;;;;;;;0.45;0.45;;;;;;;15.67;51.27;92688.03;4696255;30;20431;-78
2021/06/25 05:32:47;;;;;;;0.70;0.50;;;;;;;15.78;50.61;92681.38;4736269;30;20069;-78
2021/06/25 05:35:12;;;;;;;2.38;0.50;;;;;;;15.87;51.46;92676.84;4727025;30;20070;-79
2021/06/25 05:37:48;;;;;;;0.98;0.50;;;;;;;15.98;50.61;92682.56;4739366;30;20045;-78
2021/06/25 05:40:14;;;;;;;0.82;0.60;;;;;;;16.11;50.45;92684.25;4720798;30;20049;-78
2021/06/25 05:42:40;;;;;;;2.60;0.52;;;;;;;16.19;50.88;92682.69;4716611;30;20037;-79
2021/06/25 05:45:06;;;;;;;0.82;0.57;;;;;;;16.39;50.43;92682.00;4707697;30;20508;-79
2021/06/25 05:47:31;;;;;;;2.97;0.80;;;;;;;17.52;47.62;92683.22;4734163;30;20127;-79
2021/06/25 05:49:58;;;;;;;1.20;0.90;;;;;;;20.74;40.53;92678.75;4735639;30;20673;-79
2021/06/25 05:52:23;;;;;;;0.60;0.60;;;;;;;23.43;35.43;92675.72;4700250;30;20131;-80
2021/06/25 05:54:49;;;;;;;0.68;0.65;;;;;;;25.29;31.09;92673.41;4720061;30;20059;-79
2021/06/25 05:57:14;;;;;;;1.02;0.93;;;;;;;26.72;28.98;92670.47;4734429;30;20112;-80
2021/06/25 05:59:40;;;;;;;1.83;0.98;;;;;;;27.52;28.61;92672.72;4728244;30;20045;-80
2021/06/25 06:02:07;;;;;;;1.95;1.00;;;;;;;28.33;27.12;92672.81;4722232;30;20045;-82
2021/06/25 06:04:32;;;;;;;1.55;0.82;;;;;;;29.07;25.55;92672.72;4733964;30;20036;-79
2021/06/25 06:06:58;;;;;;;0.90;0.70;;;;;;;29.79;24.45;92670.13;4740704;30;20054;-81
2021/06/25 06:09:24;;;;;;;1.92;1.10;;;;;;;30.36;24.45;92676.75;4730559;30;20060;-85
2021/06/25 06:11:49;;;;;;;1.30;1.10;;;;;;;30.29;24.27;92672.22;4724001;30;20081;-82
2021/06/25 06:14:15;;;;;;;3.78;0.98;;;;;;;31.25;22.91;92669.25;4731759;30;20045;-82
2021/06/25 06:16:40;;;;;;;2.63;1.10;;;;;;;31.73;21.41;92668.03;4745564;30;20049;-82
2021/06/25 06:19:06;;;;;;;2.45;0.90;;;;;;;31.43;22.24;92668.22;4724486;30;20110;-81
2021/06/25 06:32:39;;;;;;;4.28;1.00;;;;;;;30.34;25.34;92670.25;4736034;30;20100;-80
2021/06/25 06:35:05;;;;;;;3.38;1.17;;;;;;;30.02;25.63;92664.06;4723360;30;20075;-83
2021/06/25 06:37:31;;;;;;;1.70;1.10;;;;;;;29.15;27.70;92666.09;4737401;30;20048;-82
2021/06/25 06:39:56;;;;;;;2.67;0.98;;;;;;;28.56;28.84;92664.22;4737148;30;20113;-84
2021/06/25 06:42:22;;;;;;;2.30;1.10;;;;;;;27.85;30.44;92668.00;4738270;30;20084;-83
2021/06/25 06:44:48;;;;;;;1.42;0.90;;;;;;;27.12;31.58;92660.47;4740297;30;20044;-81
2021/06/25 06:47:13;;;;;;;3.53;0.77;;;;;;;26.14;32.19;92653.47;4739618;30;20450;-84
2021/06/25 06:49:39;;;;;;;2.28;0.68;;;;;;;25.59;32.74;92659.00;4738340;30;20511;-83
2021/06/25 06:52:06;;;;;;;2.50;0.80;;;;;;;24.33;36.34;92665.31;4737118;30;20377;-84
2021/06/25 06:54:32;;;;;;;3.50;0.55;;;;;;;24.39;34.60;92658.50;4736504;30;20205;-83
2021/06/25 06:56:59;;;;;;;1.92;0.52;;;;;;;23.94;33.52;92653.09;4740112;30;20051;-82
2021/06/25 06:59:24;;;;;;;1.95;0.68;;;;;;;23.19;38.47;92665.47;4745794;30;20053;-82
2021/06/25 07:01:50;;;;;;;4.22;1.23;;;;;;;23.02;39.76;92661.44;4741362;30;20033;-81
2021/06/25 07:04:16;;;;;;;2.45;1.00;;;;;;;22.30;44.42;92668.28;4726508;30;20072;-81
2021/06/25 07:06:41;;;;;;;5.57;1.33;;;;;;;21.78;46.32;92657.03;4738804;30;20045;-80
2021/06/25 07:09:07;;;;;;;0.95;0.60;;;;;;;21.79;41.19;92669.22;4738174;30;20197;-82
2021/06/25 07:11:33;;;;;;;2.05;1.00;;;;;;;21.35;44.39;92666.03;4725617;30;20048;-82
2021/06/25 07:13:58;;;;;;;5.85;1.27;;;;;;;21.78;45.21;92666.91;4737635;30;20447;-81
2021/06/25 07:19:51;;;;;;;0.30;0.30;;;;;;;22.26;39.13;92658.66;4735317;30;20036;-82
2021/06/25 07:22:35;;;;;;;5.88;1.55;;;;;;;22.37;41.54;92664.97;4737167;30;20047;-80
2021/06/25 07:25:01;;;;;;;1.30;0.80;;;;;;;22.59;39.54;92656.19;4732930;30;20072;-79
2021/06/25 07:28:05;;;;;;;1.50;0.70;;;;;;;22.76;39.58;92657.56;4740890;30;20044;-81
2021/06/25 07:34:56;;;;;;;1.58;0.73;;;;;;;21.96;43.02;92665.34;4747399;29;20057;-81
2021/06/25 07:37:23;;;;;;;6.50;1.15;;;;;;;22.46;42.83;92660.16;4762086;30;20056;-81
2021/06/25 07:39:49;;;;;;;2.53;0.90;;;;;;;22.14;43.62;92663.00;4763738;30;20044;-82
2021/06/25 07:42:15;;;;;;;2.90;1.10;;;;;;;22.07;43.35;92668.22;4764738;30;20142;-80
2021/06/25 07:44:41;;;;;;;4.88;1.15;;;;;;;21.60;44.41;92664.66;4765136;30;20385;-81
2021/06/25 07:47:07;;;;;;;2.90;1.00;;;;;;;20.95;45.98;92665.16;4763796;30;20086;-81
2021/06/25 07:49:33;;;;;;;1.23;0.80;;;;;;;21.54;44.23;92659.97;4747915;30;20048;-81
2021/06/25 07:51:58;;;;;;;2.13;1.00;;;;;;;21.38;47.51;92663.41;4761800;30;20083;-81
2021/06/25 07:54:24;;;;;;;8.80;1.27;;;;;;;20.70;46.81;92663.84;4747282;30;20132;-81
2021/06/25 07:56:49;;;;;;;2.45;1.10;;;;;;;20.40;50.67;92661.59;4747801;30;20078;-80
2021/06/25 07:59:15;;;;;;;3.20;1.13;;;;;;;20.04;49.49;92668.66;4747022;30;20060;-81
2021/06/25 08:01:41;;;;;;;2.75;1.08;;;;;;;20.09;51.80;92662.31;4747230;30;20034;-81
2021/06/25 08:04:06;;;;;;;2.40;1.10;;;;;;;20.33;50.96;92656.88;4746995;30;20155;-81
2021/06/25 08:06:32;;;;;;;2.72;1.20;;;;;;;20.57;49.75;92661.25;4763259;30;20056;-80
2021/06/25 08:08:58;;;;;;;1.35;0.90;;;;;;;20.38;49.09;92658.50;4746097;30;20048;-82
2021/06/25 08:11:24;;;;;;;3.90;1.10;;;;;;;20.43;48.22;92660.88;4762395;30;20055;-80
2021/06/25 08:13:49;;;;;;;1.90;1.05;;;;;;;20.80;49.27;92657.97;4761583;30;20045;-81
2021/06/25 08:16:15;;;;;;;4.38;1.10;;;;;;;21.06;49.28;92661.97;4747016;30;20056;-81
2021/06/25 08:18:40;;;;;;;4.18;1.02;;;;;;;20.63;50.00;92659.13;4762450;30;20085;-80
2021/06/25 08:21:06;;;;;;;2.90;0.82;;;;;;;21.21;44.97;92656.63;4762990;30;20137;-80
2021/06/25 08:23:32;;;;;;;5.50;1.13;;;;;;;21.12;50.11;92660.56;4768198;30;20048;-80
2021/06/25 08:25:57;;;;;;;4.05;1.20;;;;;;;20.42;53.03;92648.69;4751778;30;20074;-81
2021/06/25 08:28:23;;;;;;;3.42;1.25;;;;;;;20.59;52.34;92659.03;4765536;30;20052;-81
2021/06/25 08:30:49;;;;;;;5.22;1.13;;;;;;;20.18;54.57;92653.06;4762351;30;20048;-82
2021/06/25 08:33:14;;;;;;;1.48;0.90;;;;;;;20.54;48.64;92656.59;4765746;30;20147;-80
2021/06/25 08:35:40;;;;;;;2.05;0.98;;;;;;;20.46;51.44;92654.88;4750393;30;20059;-80
2021/06/25 08:38:06;;;;;;;3.67;0.95;;;;;;;20.50;51.47;92653.06;4768978;30;20080;-81
2021/06/25 08:40:32;;;;;;;3.58;1.15;;;;;;;20.62;50.94;92654.13;4779600;30;20091;-80
2021/06/25 08:42:57;;;;;;;3.47;1.25;;;;;;;20.57;53.66;92657.81;4767601;30;20610;-81
2021/06/25 08:45:24;;;;;;;7.53;1.48;;;;;;;20.93;52.66;92656.75;4764262;30;20044;-80
2021/06/25 08:47:51;;;;;;;2.05;1.10;;;;;;;21.04;51.39;92657.00;4770559;30;20075;-80
2021/06/25 08:50:23;;;;;;;7.25;1.10;;;;;;;20.42;49.47;92654.00;4770879;30;20074;-80
2021/06/25 08:52:51;;;;;;;3.53;1.30;;;;;;;20.70;53.78;92661.94;4763168;30;20063;-82
2021/06/25 08:55:18;;;;;;;3.92;1.30;;;;;;;21.23;50.27;92653.59;4762197;30;20067;-80
2021/06/25 08:57:45;;;;;;;3.30;1.00;;;;;;;21.35;51.40;92650.81;4747519;30;20044;-80
2021/06/25 09:00:13;;;;;;;2.15;1.00;;;;;;;21.26;47.22;92652.91;4761160;30;20048;-80
2021/06/25 09:02:39;;;;;;;14.32;1.40;;;;;;;20.86;49.85;92656.59;4777789;30;20079;-79
2021/06/25 09:05:07;;;;;;;1.65;1.05;;;;;;;21.21;49.97;92651.28;4759797;30;20107;-81
2021/06/25 09:07:45;;;;;;;3.08;1.20;;;;;;;21.49;51.35;92653.03;4781206;30;20139;-80
2021/06/25 09:10:12;;;;;;;2.90;1.17;;;;;;;21.42;50.79;92656.31;4760581;30;20075;-80
2021/06/25 09:12:39;;;;;;;7.35;1.30;;;;;;;21.69;50.48;92645.81;4767990;30;20055;-80
2021/06/25 09:15:13;;;;;;;4.88;1.15;;;;;;;21.98;48.11;92654.34;4760891;30;20056;-79
2021/06/25 09:17:59;;;;;;;1.77;1.02;;;;;;;21.83;48.10;92656.72;4767917;30;20051;-81
2021/06/25 09:20:47;;;;;;;5.50;0.90;;;;;;;21.69;48.66;92653.81;4751943;30;20051;-80
2021/06/25 09:23:15;;;;;;;3.50;1.30;;;;;;;21.82;49.07;92657.88;4766289;30;20048;-81
2021/06/25 09:29:43;;;;;;;2.95;0.90;;;;;;;21.96;46.56;92654.69;4761387;30;20106;-80
2021/06/25 09:32:11;;;;;;;2.72;0.90;;;;;;;22.10;46.46;92662.16;4760328;30;20074;-80
2021/06/25 09:34:41;;;;;;;2.65;0.80;;;;;;;22.04;44.14;92660.91;4779755;30;20083;-80
2021/06/25 09:37:18;;;;;;;2.08;0.90;;;;;;;22.26;46.97;92653.34;4764073;30;20060;-80
2021/06/25 09:39:57;;;;;;;3.80;0.90;;;;;;;22.49;40.60;92651.44;4756611;30;20110;-81
2021/06/25 09:42:24;;;;;;;0.65;0.65;;;;;;;22.62;42.26;92655.47;4764695;30;20564;-80
2021/06/25 09:45:15;;;;;;;2.10;0.85;;;;;;;22.86;46.62;92664.22;4755469;30;20127;-81
2021/06/25 09:47:59;;;;;;;2.15;0.80;;;;;;;22.85;41.58;92658.13;4763988;30;20043;-80
2021/06/25 09:50:29;;;;;;;6.72;1.20;;;;;;;23.13;45.10;92659.69;4760690;30;20144;-80
2021/06/25 09:53:01;;;;;;;1.83;1.05;;;;;;;23.35;42.49;92662.63;4765542;30;20044;-81
2021/06/25 09:55:27;;;;;;;1.13;0.80;;;;;;;23.49;39.52;92657.50;4764992;30;20459;-80
2021/06/25 09:58:57;;;;;;;2.17;1.10;;;;;;;23.67;40.80;92663.06;4761548;30;20048;-80
2021/06/25 10:04:09;;;;;;;1.05;0.63;;;;;;;23.48;39.22;92662.06;4760677;30;20055;-80
2021/06/25 10:06:35;;;;;;;1.35;1.00;;;;;;;23.83;40.20;92660.97;4745274;30;20071;-80
2021/06/25 10:09:01;;;;;;;5.13;1.10;;;;;;;23.87;39.97;92667.13;4760384;30;20404;-80
2021/06/25 10:11:29;;;;;;;1.30;0.70;;;;;;;24.01;37.90;92655.06;4762798;30;20052;-82
2021/06/25 10:13:57;;;;;;;1.27;0.70;;;;;;;23.20;39.22;92657.09;4763804;30;20048;-82
2021/06/25 10:16:23;;;;;;;4.93;0.63;;;;;;;23.60;37.23;92657.63;4751703;30;20144;-79
2021/06/25 10:18:53;;;;;;;2.22;0.80;;;;;;;23.49;37.33;92657.50;4759486;30;20653;-81
2021/06/25 10:21:25;;;;;;;3.17;0.82;;;;;;;23.19;39.44;92660.13;4756145;30;20515;-83
2021/06/25 10:24:28;;;;;;;2.90;0.88;;;;;;;23.75;40.13;92661.25;4747820;30;20415;-83
2021/06/25 10:26:55;;;;;;;2.05;0.65;;;;;;;23.32;36.56;92663.38;4755338;30;20095;-82
2021/06/25 10:29:24;;;;;;;0.60;0.60;;;;;;;23.46;40.03;92659.00;4755502;30;20048;-81
2021/06/25 10:31:50;;;;;;;1.00;0.80;;;;;;;23.81;39.70;92655.22;4754151;30;20067;-82
2021/06/25 10:34:16;;;;;;;2.53;0.80;;;;;;;24.00;39.78;92661.53;4743741;30;20105;-81
2021/06/25 10:36:42;;;;;;;3.45;0.60;;;;;;;23.44;36.58;92666.59;4746376;30;20158;-80
2021/06/25 10:39:10;;;;;;;3.35;1.00;;;;;;;23.21;39.95;92657.88;4751025;30;20135;-82
2021/06/25 10:41:48;;;;;;;3.47;0.90;;;;;;;23.09;39.18;92660.75;4745396;30;20051;-79
2021/06/25 10:44:51;;;;;;;0.98;0.63;;;;;;;22.89;40.00;92663.50;4751142;30;20037;-79
2021/06/25 10:47:28;;;;;;;4.20;0.80;;;;;;;23.59;40.51;92661.41;4747312;30;20048;-80
2021/06/25 10:50:03;;;;;;;1.08;0.70;;;;;;;23.35;39.28;92658.09;4747461;30;20139;-80
2021/06/25 10:52:32;;;;;;;1.60;0.70;;;;;;;23.57;36.78;92661.00;4749854;30;20052;-81
2021/06/25 10:55:05;;;;;;;1.48;0.68;;;;;;;23.28;35.75;92660.63;4753982;30;20400;-80
2021/06/25 10:57:33;;;;;;;4.10;0.90;;;;;;;23.27;39.07;92664.44;4754585;30;20055;-82
2021/06/25 10:59:59;;;;;;;2.97;0.75;;;;;;;23.25;38.65;92659.47;4752751;30;20105;-80
2021/06/25 11:02:47;;;;;;;0.80;0.70;;;;;;;23.58;39.40;92655.31;4753941;30;20115;-81
2021/06/25 11:05:25;;;;;;;1.55;0.77;;;;;;;23.88;37.89;92651.88;4751928;30;20537;-80
2021/06/25 11:07:52;;;;;;;1.35;0.73;;;;;;;23.77;38.30;92657.09;4757178;30;20035;-79
2021/06/25 11:10:25;;;;;;;7.22;1.10;;;;;;;24.00;39.53;92653.50;4740164;30;20264;-82
2021/06/25 11:13:15;;;;;;;0.63;0.60;;;;;;;24.21;37.13;92642.28;4753249;30;20056;-81
2021/06/25 11:15:43;;;;;;;0.98;0.70;;;;;;;24.16;37.05;92646.06;4744269;30;20060;-81
2021/06/25 11:18:22;;;;;;;1.20;0.90;;;;;;;24.78;36.56;92644.72;4753405;30;20070;-80
2021/06/25 11:21:02;;;;;;;2.00;0.68;;;;;;;24.03;34.40;92648.22;4755425;30;20510;-79
2021/06/25 11:23:48;;;;;;;2.08;0.75;;;;;;;24.22;36.21;92646.50;4754194;30;20055;-80
2021/06/25 11:26:14;;;;;;;3.20;0.93;;;;;;;24.60;37.22;92648.00;4748151;30;20150;-79
2021/06/25 11:28:41;;;;;;;1.77;0.90;;;;;;;24.18;38.16;92653.69;4750060;30;20071;-79
2021/06/25 11:31:08;;;;;;;2.70;0.90;;;;;;;23.99;38.68;92646.66;4749534;30;20064;-80
2021/06/25 11:33:56;;;;;;;2.10;0.90;;;;;;;24.48;38.02;92646.38;4751519;30;20052;-81
2021/06/25 11:36:37;;;;;;;0.55;0.55;;;;;;;25.16;36.61;92642.66;4747287;30;20088;-80
2021/06/25 11:39:21;;;;;;;0.98;0.80;;;;;;;24.45;35.55;92632.94;4748299;30;20052;-80
2021/06/25 11:41:46;;;;;;;1.58;0.95;;;;;;;24.07;36.01;92648.22;4744297;30;20044;-80
2021/06/25 11:44:24;;;;;;;2.42;0.90;;;;;;;24.12;37.74;92629.22;4749348;30;20051;-79
2021/06/25 11:47:04;;;;;;;0.95;0.70;;;;;;;24.13;36.21;92630.72;4745761;30;20044;-80
2021/06/25 11:49:49;;;;;;;0.93;0.77;;;;;;;24.46;40.29;92627.22;4748637;30;20055;-79
2021/06/25 11:52:21;;;;;;;2.03;1.00;;;;;;;24.16;36.38;92630.03;4748286;30;20135;-79
2021/06/25 11:54:51;;;;;;;3.10;1.10;;;;;;;23.89;38.31;92630.13;4754568;30;20056;-81
2021/06/25 11:57:30;;;;;;;1.35;0.93;;;;;;;24.44;39.59;92636.75;4762288;30;20301;-79
2021/06/25 12:00:08;;;;;;;2.70;1.20;;;;;;;24.03;38.49;92639.44;4758477;30;20496;-81
2021/06/25 12:02:48;;;;;;;1.95;1.17;;;;;;;23.94;38.30;92633.63;4758509;30;20060;-80
2021/06/25 12:05:18;;;;;;;3.42;1.17;;;;;;;23.93;39.97;92632.81;4759915;30;20083;-79
2021/06/25 12:11:06;;;;;;;2.20;1.30;;;;;;;23.87;38.96;92635.06;4741679;30;20044;-80
2021/06/25 12:13:35;;;;;;;4.57;1.40;;;;;;;23.83;39.87;92617.44;4741411;30;20781;-80
2021/06/25 12:16:00;;;;;;;2.33;1.30;;;;;;;23.64;40.12;92637.03;4740463;30;20060;-81
2021/06/25 12:18:28;;;;;;;1.80;1.08;;;;;;;23.66;39.23;92638.25;4741550;30;20420;-80
2021/06/25 12:21:15;;;;;;;2.60;1.30;;;;;;;24.09;40.69;92629.94;4741499;30;20052;-79
2021/06/25 12:23:41;;;;;;;5.63;1.35;;;;;;;24.68;38.05;92622.09;4740636;30;20055;-81
2021/06/25 12:26:18;;;;;;;6.50;1.45;;;;;;;24.95;40.92;92619.97;4746913;30;20052;-80
2021/06/25 12:28:44;;;;;;;2.42;1.02;;;;;;;24.91;39.47;92611.91;4758945;30;20139;-80
2021/06/25 12:31:15;;;;;;;2.75;1.35;;;;;;;24.88;39.13;92606.53;4758369;30;20055;-80
2021/06/25 12:33:40;;;;;;;2.15;1.20;;;;;;;24.45;40.19;92615.00;4759666;30;20060;-80
2021/06/25 12:36:13;;;;;;;2.83;1.42;;;;;;;23.93;38.14;92621.38;4757807;30;20060;-80
2021/06/25 12:38:39;;;;;;;3.58;1.67;;;;;;;23.92;38.16;92625.19;4757971;30;20048;-80
2021/06/25 12:41:09;;;;;;;4.57;1.33;;;;;;;23.86;39.87;92622.81;4757641;30;20151;-80
2021/06/25 12:43:38;;;;;;;3.55;1.30;;;;;;;23.74;41.22;92620.38;4758031;30;20076;-80
2021/06/25 12:46:19;;;;;;;3.42;1.40;;;;;;;23.97;40.38;92620.25;4759070;30;20048;-80
2021/06/25 12:48:58;;;;;;;2.38;1.40;;;;;;;24.49;39.48;92612.38;4757145;30;20147;-81
2021/06/25 12:51:34;;;;;;;2.47;1.25;;;;;;;24.64;40.26;92611.34;4758570;30;20131;-80
2021/06/25 12:54:01;;;;;;;3.03;1.23;;;;;;;24.54;41.02;92612.00;4759195;30;20048;-79
2021/06/25 12:56:31;;;;;;;5.03;1.58;;;;;;;24.25;39.84;92605.63;4759042;30;20411;-80
2021/06/25 12:59:01;;;;;;;2.78;1.48;;;;;;;24.10;40.51;92605.50;4758112;30;20068;-81
2021/06/25 13:01:56;;;;;;;2.97;1.35;;;;;;;24.01;40.18;92601.59;4757597;30;20590;-80
2021/06/25 13:04:30;;;;;;;4.80;1.30;;;;;;;23.33;40.75;92606.13;4758619;30;20056;-81
2021/06/25 13:07:07;;;;;;;6.03;1.52;;;;;;;23.92;40.13;92604.56;4757247;30;20056;-80
2021/06/25 13:09:37;;;;;;;5.65;1.60;;;;;;;23.99;41.21;92598.53;4740244;30;20067;-80
2021/06/25 13:12:13;;;;;;;3.88;1.50;;;;;;;24.04;41.09;92600.84;4756118;30;20075;-80
2021/06/25 13:14:45;;;;;;;3.22;1.30;;;;;;;24.61;41.33;92584.53;4755788;30;20416;-81
2021/06/25 13:17:13;;;;;;;;;;;;;;;24.54;39.63;92600.53;4755610;30;20051;-81
2021/06/25 13:19:54;;;;;;;2.70;1.35;;;;;;;24.73;38.84;92609.13;4755732;30;19917;-81
2021/06/25 13:22:49;;;;;;;4.23;1.80;;;;;;;24.87;39.91;92597.72;4755495;30;20056;-81
2021/06/25 13:25:24;;;;;;;3.45;1.48;;;;;;;24.41;39.95;92590.13;4757309;30;20055;-80
2021/06/25 13:27:50;;;;;;;7.88;1.58;;;;;;;24.54;39.46;92598.63;4755934;30;20515;-81
2021/06/25 13:30:26;;;;;;;5.65;1.50;;;;;;;24.31;40.63;92591.53;4755204;30;20502;-81
2021/06/25 13:33:08;;;;;;;4.85;1.52;;;;;;;24.51;39.23;92602.81;4755537;30;20060;-81
2021/06/25 13:35:43;;;;;;;3.67;1.48;;;;;;;24.61;39.27;92596.03;4748409;30;20523;-81
2021/06/25 13:38:22;;;;;;;2.65;1.48;;;;;;;24.33;39.00;92587.75;4755759;30;20173;-81
2021/06/25 13:40:57;;;;;;;6.68;1.60;;;;;;;24.30;39.54;92590.03;4754592;30;20048;-81
2021/06/25 13:46:52;;;;;;;4.97;1.67;;;;;;;24.09;40.65;92590.59;4754985;30;20052;-81
2021/06/25 13:49:22;;;;;;;3.47;1.75;;;;;;;24.51;40.42;92589.44;4755607;30;20511;-81
2021/06/25 13:51:47;;;;;;;4.57;1.70;;;;;;;24.63;40.72;92590.28;4755446;30;20056;-80
2021/06/25 13:54:18;;;;;;;4.22;1.73;;;;;;;24.70;39.42;92585.78;4755341;30;20089;-80
2021/06/25 13:56:43;;;;;;;5.90;2.03;;;;;;;24.47;39.69;92585.97;4755468;30;20505;-80
2021/06/25 13:59:10;;;;;;;5.60;1.80;;;;;;;24.20;39.98;92581.91;4755050;30;20060;-80
2021/06/25 14:04:44;;;;;;;4.97;1.80;;;;;;;24.78;38.64;92578.56;4754787;30;20078;-80
2021/06/25 14:07:13;;;;;;;3.55;1.95;;;;;;;25.37;40.89;92575.81;4754716;30;20055;-81
2021/06/25 14:10:08;;;;;;;4.40;1.67;;;;;;;25.10;39.83;92569.94;4741878;30;20118;-80
2021/06/25 14:12:43;;;;;;;4.15;1.88;;;;;;;25.79;37.52;92566.41;4735155;30;20543;-81
2021/06/25 14:15:09;;;;;;;4.38;1.95;;;;;;;25.14;37.60;92568.81;4749602;30;20096;-80
2021/06/25 14:17:37;;;;;;;3.95;1.80;;;;;;;24.99;38.01;92572.53;4754769;30;20567;-81
2021/06/25 14:20:05;;;;;;;4.95;1.83;;;;;;;24.93;38.48;92563.34;4753343;30;20515;-81
2021/06/25 14:22:30;;;;;;;4.35;1.92;;;;;;;25.10;39.41;92562.66;4754568;30;20109;-81
2021/06/25 14:24:57;;;;;;;4.85;1.90;;;;;;;24.80;39.54;92556.78;4754791;30;20609;-80
2021/06/25 14:27:23;;;;;;;3.85;1.63;;;;;;;24.64;38.41;92570.44;4754815;30;20040;-81
2021/06/25 14:29:48;;;;;;;3.63;1.80;;;;;;;24.48;38.55;92568.78;4752958;30;20056;-80
2021/06/25 14:32:16;;;;;;;4.78;2.10;;;;;;;24.50;39.49;92566.50;4737920;30;20060;-80
2021/06/25 14:34:42;;;;;;;3.75;1.85;;;;;;;24.70;38.74;92561.69;4752357;30;20091;-81
2021/06/25 14:37:07;;;;;;;4.28;2.00;;;;;;;24.65;37.84;92551.31;4752230;30;20099;-81
2021/06/25 14:39:33;;;;;;;5.13;1.70;;;;;;;25.08;37.40;92554.25;4752913;30;20060;-81
2021/06/25 14:41:59;;;;;;;3.30;1.70;;;;;;;24.83;40.23;92554.09;4753107;30;20052;-81
2021/06/25 14:44:25;;;;;;;7.25;1.83;;;;;;;25.22;40.21;92553.59;4752862;30;20061;-81
2021/06/25 14:46:51;;;;;;;4.95;1.80;;;;;;;25.61;37.06;92562.91;4752847;30;20101;-81
2021/06/25 14:49:17;;;;;;;4.03;1.70;;;;;;;26.19;37.26;92553.84;4754011;30;20100;-81
2021/06/25 14:51:43;;;;;;;5.53;1.67;;;;;;;26.47;36.10;92550.41;4752238;30;20466;-81
2021/06/25 14:54:10;;;;;;;4.97;1.90;;;;;;;26.60;35.32;92547.38;4753169;30;20055;-81
2021/06/25 14:56:35;;;;;;;3.53;1.70;;;;;;;26.03;35.35;92546.19;4737340;30;20052;-81
2021/06/25 14:59:01;;;;;;;5.28;2.25;;;;;;;26.18;36.68;92547.72;4752822;30;20075;-81
2021/06/25 15:01:26;;;;;;;4.35;1.73;;;;;;;26.45;35.91;92543.88;4752537;30;20477;-81
2021/06/25 15:03:52;;;;;;;6.18;1.83;;;;;;;26.82;34.75;92540.81;4751797;30;20040;-83
2021/06/25 15:06:18;;;;;;;4.10;1.52;;;;;;;26.30;34.49;92546.59;4754892;30;20056;-81
2021/06/25 15:08:43;;;;;;;3.92;2.13;;;;;;;25.25;35.91;92549.38;4756181;30;20052;-83
2021/06/25 15:11:10;;;;;;;3.25;1.63;;;;;;;25.70;35.22;92545.31;4753923;30;20060;-82
2021/06/25 15:13:35;;;;;;;3.08;1.60;;;;;;;26.09;33.99;92544.63;4753346;30;20471;-78
2021/06/25 15:16:01;;;;;;;3.03;1.58;;;;;;;25.63;35.91;92533.81;4750444;30;20154;-78
2021/06/25 15:18:27;;;;;;;7.85;2.00;;;;;;;25.10;35.81;92551.94;4753308;30;20515;-79
2021/06/25 15:20:53;;;;;;;4.55;1.55;;;;;;;25.51;35.48;92542.94;4752680;30;20048;-79
2021/06/25 15:23:18;;;;;;;2.28;1.45;;;;;;;25.93;35.46;92538.88;4756096;30;20051;-79
2021/06/25 15:25:44;;;;;;;2.75;1.60;;;;;;;26.41;35.19;92541.19;4751603;30;20056;-78
2021/06/25 15:28:11;;;;;;;9.35;1.63;;;;;;;26.61;34.79;92540.84;4753094;30;20040;-80
2021/06/25 15:30:37;;;;;;;8.63;1.73;;;;;;;25.61;35.10;92544.16;4750550;30;20384;-80
2021/06/25 15:33:04;;;;;;;10.32;2.53;;;;;;;25.30;34.58;92539.06;4734327;30;20052;-80
2021/06/25 15:35:31;;;;;;;4.68;1.67;;;;;;;24.92;36.78;92535.03;4741824;30;20063;-80
2021/06/25 15:38:00;;;;;;;4.53;1.60;;;;;;;25.13;36.19;92537.81;4735350;30;20056;-80
2021/06/25 15:40:26;;;;;;;3.45;1.70;;;;;;;25.12;35.60;92533.59;4735740;30;20475;-80
2021/06/25 15:42:52;;;;;;;5.22;2.08;;;;;;;25.27;35.26;92531.78;4719533;30;20057;-81
2021/06/25 15:45:20;;;;;;;3.67;1.77;;;;;;;25.17;36.19;92529.03;4723857;30;20519;-79
2021/06/25 15:47:46;;;;;;;3.70;1.70;;;;;;;25.17;35.97;92529.03;4732698;30;20064;-80
2021/06/25 15:50:12;;;;;;;6.53;1.85;;;;;;;24.79;36.70;92525.78;4732453;30;20060;-80
2021/06/25 15:52:37;;;;;;;6.28;1.73;;;;;;;24.28;36.82;92528.09;4734105;30;20412;-79